Time;durP1;ratioP1;P1;durP2;ratioP2;P2;SDS_P1;SDS_P2;PMS_P1;PMS_P2;Temp;Humidity;BMP_temperature;BMP_pressure;BME280_temperature;BME280_humidity;BME280_pressure;Samples;Min_cycle;Max_cycle;Signal;HPM_P1;HPM_P2
2023/09/29 04:31:37;;;;;;;;;1.75;1.75;;;;;28.71;46.73;101135.47;1417690;25;46073;-79
2023/09/29 04:34:03;;;;;;;;;2.00;2.00;;;;;28.54;46.84;101132.78;5011746;28;46167;-80
2023/09/29 04:36:28;;;;;;;;;3.25;2.00;;;;;28.52;47.01;101129.34;5013685;28;45389;-80
2023/09/29 04:38:54;;;;;;;;;2.25;2.25;;;;;28.70;46.94;101128.25;5013631;28;45255;-80
2023/09/29 04:41:19;;;;;;;;;2.75;2.75;;;;;28.74;46.74;101130.47;5013638;28;45510;-77
2023/09/29 04:43:45;;;;;;;;;2.25;1.50;;;;;28.66;46.91;101130.53;5013510;27;45916;-79
2023/09/29 04:46:10;;;;;;;;;5.75;4.00;;;;;28.67;47.04;101132.22;5010453;28;45714;-81
2023/09/29 04:48:35;;;;;;;;;4.00;2.75;;;;;28.86;46.65;101126.31;5011269;28;45469;-80
2023/09/29 04:51:01;;;;;;;;;4.75;2.50;;;;;28.87;46.57;101141.81;5011256;27;46625;-77
2023/09/29 04:53:26;;;;;;;;;5.75;2.75;;;;;28.94;45.78;101142.81;4992736;28;54960;-80
2023/09/29 04:55:51;;;;;;;;;2.00;2.00;;;;;28.92;46.22;101142.13;4992549;27;45356;-80
2023/09/29 04:58:17;;;;;;;;;2.00;2.00;;;;;28.95;46.23;101130.75;5005431;28;45358;-79
2023/09/29 05:00:42;;;;;;;;;3.75;3.25;;;;;28.89;46.10;101134.22;5007630;28;45816;-80
2023/09/29 05:03:10;;;;;;;;;4.00;3.50;;;;;28.93;46.22;101141.09;4992739;28;46123;-81
2023/09/29 05:05:35;;;;;;;;;4.00;2.25;;;;;28.76;46.27;101136.69;4993581;28;45348;-79
2023/09/29 05:08:01;;;;;;;;;3.25;2.00;;;;;28.60;46.35;101137.59;4993344;28;45352;-79
2023/09/29 05:10:26;;;;;;;;;5.00;3.25;;;;;28.78;45.99;101144.78;4991990;28;45527;-79
2023/09/29 05:12:51;;;;;;;;;4.25;4.25;;;;;28.71;46.65;101138.25;4993224;28;45566;-80
2023/09/29 05:15:17;;;;;;;;;2.75;2.75;;;;;28.71;45.84;101141.88;4993644;28;45339;-80
2023/09/29 05:17:42;;;;;;;;;3.50;2.25;;;;;28.75;46.16;101142.38;4992971;28;45344;-80
2023/09/29 05:20:10;;;;;;;;;6.25;5.00;;;;;28.72;46.43;101139.97;5008554;28;46677;-83
2023/09/29 05:22:35;;;;;;;;;3.00;2.00;;;;;28.74;46.51;101157.22;5008376;28;47107;-78
2023/09/29 05:25:01;;;;;;;;;3.50;3.50;;;;;28.80;46.08;101164.81;4993642;28;45217;-81
2023/09/29 05:27:29;;;;;;;;;5.25;2.50;;;;;28.76;45.85;101155.13;5008534;28;45484;-78
2023/09/29 05:29:57;;;;;;;;;4.00;4.00;;;;;28.75;45.94;101151.50;4993295;28;45313;-77
2023/09/29 05:32:23;;;;;;;;;3.75;3.75;;;;;28.83;46.67;101176.34;4992697;27;45343;-79
2023/09/29 05:34:48;;;;;;;;;3.50;3.00;;;;;28.46;46.14;101137.47;4993521;28;45365;-79
2023/09/29 05:37:14;;;;;;;;;3.25;3.25;;;;;28.61;46.75;101182.59;5011758;28;45436;-78
2023/09/29 05:39:40;;;;;;;;;4.50;3.00;;;;;28.65;46.29;101192.25;5012942;28;51406;-75
2023/09/29 05:42:05;;;;;;;;;4.75;3.75;;;;;28.55;46.35;101194.34;5012841;28;46384;-79
2023/09/29 05:44:31;;;;;;;;;4.00;2.25;;;;;28.42;46.70;101203.16;5011019;27;45536;-84
2023/09/29 05:46:56;;;;;;;;;6.50;4.75;;;;;28.64;46.61;101212.59;5012740;28;45749;-82
2023/09/29 05:49:21;;;;;;;;;7.00;6.00;;;;;28.52;46.38;101169.84;5012357;28;45156;-80
2023/09/29 05:51:47;;;;;;;;;5.75;3.00;;;;;28.66;46.24;101193.13;5012549;28;45364;-82
2023/09/29 05:54:15;;;;;;;;;2.75;2.75;;;;;28.44;45.75;101180.91;5012861;28;45175;-89
2023/09/29 05:56:41;;;;;;;;;4.75;4.00;;;;;28.49;45.19;101161.97;5012456;27;45621;-87
2023/09/29 05:59:06;;;;;;;;;4.75;4.75;;;;;28.73;45.05;101189.47;5001013;28;45424;-84
2023/09/29 06:01:32;;;;;;;;;7.50;4.00;;;;;28.47;45.46;101151.09;4992727;28;46263;-86
2023/09/29 06:03:58;;;;;;;;;9.25;5.50;;;;;28.08;45.53;101131.66;4992610;28;45405;-85
2023/09/29 06:06:24;;;;;;;;;7.75;4.00;;;;;28.62;45.62;101203.63;4992912;28;45391;-83
2023/09/29 06:08:49;;;;;;;;;4.25;4.00;;;;;28.57;44.83;101192.28;5001456;28;45522;-83
2023/09/29 06:11:15;;;;;;;;;7.50;6.50;;;;;28.80;45.01;101220.88;5016596;28;46111;-78
2023/09/29 06:13:42;;;;;;;;;5.00;5.00;;;;;28.73;44.66;101224.47;5010839;28;45925;-83
2023/09/29 06:16:08;;;;;;;;;7.75;5.00;;;;;28.76;45.26;101236.03;5005578;28;45523;-82
2023/09/29 06:18:33;;;;;;;;;6.75;5.00;;;;;28.88;44.91;101239.28;5005144;27;46232;-80
2023/09/29 06:21:00;;;;;;;;;7.25;5.50;;;;;28.84;45.11;101233.25;5009463;28;45454;-76
2023/09/29 06:23:25;;;;;;;;;6.50;2.75;;;;;28.81;45.10;101227.25;5011551;28;45424;-76
2023/09/29 06:26:00;;;;;;;;;5.00;4.00;;;;;28.77;44.18;101242.41;5011188;28;45429;-78
2023/09/29 06:28:25;;;;;;;;;7.50;7.00;;;;;28.75;44.24;101241.72;4999473;28;45483;-78
2023/09/29 06:30:58;;;;;;;;;9.25;5.25;;;;;28.77;44.58;101245.19;4992281;28;45423;-81
2023/09/29 06:33:25;;;;;;;;;6.75;5.00;;;;;28.52;44.38;101241.59;4991925;27;45398;-82
2023/09/29 06:35:52;;;;;;;;;7.50;6.25;;;;;28.46;44.55;101237.63;4997524;28;45481;-81
2023/09/29 06:38:17;;;;;;;;;9.75;5.25;;;;;28.29;44.19;101224.91;5011541;28;47553;-79
2023/09/29 06:40:45;;;;;;;;;14.00;9.25;;;;;28.35;44.83;101245.38;5011822;28;46113;-80
2023/09/29 06:43:11;;;;;;;;;6.50;3.75;;;;;28.33;44.39;101230.94;5011493;28;45233;-78
2023/09/29 06:45:37;;;;;;;;;8.25;4.00;;;;;28.35;44.12;101249.00;5012195;28;45462;-82
2023/09/29 06:48:04;;;;;;;;;11.50;6.50;;;;;28.39;44.59;101268.84;5005945;28;45878;-83
2023/09/29 06:50:30;;;;;;;;;9.50;6.00;;;;;28.32;44.59;101241.09;5003819;28;46706;-82
2023/09/29 06:52:55;;;;;;;;;8.25;5.75;;;;;28.52;43.82;101274.69;5002845;28;45887;-81
2023/09/29 06:55:21;;;;;;;;;9.00;5.75;;;;;28.58;44.30;101279.53;4995513;27;45512;-82
2023/09/29 06:57:46;;;;;;;;;9.25;6.25;;;;;28.31;44.25;101266.97;5019059;28;45526;-82
2023/09/29 07:00:12;;;;;;;;;5.25;2.50;;;;;28.16;44.43;101271.41;5003686;28;46283;-81
2023/09/29 07:02:37;;;;;;;;;7.50;5.75;;;;;28.20;44.82;101301.25;5011101;28;45449;-80
2023/09/29 07:05:06;;;;;;;;;6.50;5.25;;;;;27.93;45.55;101287.72;5011278;28;45429;-82
2023/09/29 07:07:31;;;;;;;;;4.50;3.25;;;;;28.02;45.43;101317.03;5024624;28;45690;-81
2023/09/29 07:10:00;;;;;;;;;6.75;5.50;;;;;28.16;44.73;101308.13;5008942;28;48052;-80
2023/09/29 07:12:25;;;;;;;;;8.75;7.00;;;;;28.48;44.22;101318.31;5008543;28;45461;-82
2023/09/29 07:14:51;;;;;;;;;7.00;5.75;;;;;28.65;43.95;101340.38;5010423;28;45367;-79
2023/09/29 07:17:23;;;;;;;;;6.50;5.50;;;;;28.53;44.52;101323.31;5010154;28;45515;-82
2023/09/29 07:19:48;;;;;;;;;6.25;5.50;;;;;28.52;44.97;101332.63;5000135;28;45598;-81
2023/09/29 07:22:14;;;;;;;;;5.00;3.75;;;;;28.67;44.14;101330.06;5006456;28;46009;-80
2023/09/29 07:24:41;;;;;;;;;10.50;5.00;;;;;28.54;44.60;101327.78;4988777;28;45544;-82
2023/09/29 07:27:08;;;;;;;;;6.00;3.00;;;;;28.45;45.00;101342.63;5003819;28;46250;-82
2023/09/29 07:29:34;;;;;;;;;5.50;3.00;;;;;28.38;44.41;101333.31;5003493;28;47524;-82
2023/09/29 07:31:59;;;;;;;;;3.50;2.25;;;;;28.45;44.55;101350.91;5007725;28;45522;-83
2023/09/29 07:34:27;;;;;;;;;2.00;2.00;;;;;28.48;43.99;101337.63;5011030;28;45621;-82
2023/09/29 07:36:53;;;;;;;;;6.00;2.75;;;;;28.65;44.01;101366.09;5007104;28;45253;-81
2023/09/29 07:39:18;;;;;;;;;6.25;3.00;;;;;28.49;44.52;101371.59;5025712;28;46513;-81
2023/09/29 07:41:43;;;;;;;;;6.50;3.00;;;;;28.51;44.32;101377.78;5010989;28;45556;-82
2023/09/29 07:44:09;;;;;;;;;4.50;1.00;;;;;28.20;45.28;101395.00;5011696;27;45945;-82
2023/09/29 07:46:38;;;;;;;;;5.00;3.25;;;;;28.27;44.86;101334.50;5011145;28;45147;-82
2023/09/29 07:49:04;;;;;;;;;5.75;3.00;;;;;28.56;44.66;101353.31;4996378;28;47318;-82
2023/09/29 07:51:30;;;;;;;;;2.50;2.50;;;;;28.60;44.76;101385.03;5011035;28;45431;-81
2023/09/29 07:53:57;;;;;;;;;5.25;1.75;;;;;28.23;45.38;101408.47;5003500;28;45527;-81
2023/09/29 07:56:23;;;;;;;;;3.75;2.50;;;;;28.35;45.44;101394.31;5011987;28;45351;-81
2023/09/29 07:58:48;;;;;;;;;2.50;1.75;;;;;28.42;45.18;101412.78;5010553;28;46241;-79
2023/09/29 08:01:13;;;;;;;;;4.00;2.00;;;;;28.18;45.60;101393.44;5007493;27;45409;-80
2023/09/29 08:03:39;;;;;;;;;2.00;0.25;;;;;28.46;45.49;101425.22;4990520;28;45404;-82
2023/09/29 08:06:04;;;;;;;;;2.50;1.00;;;;;28.04;45.99;101418.88;4994227;28;45460;-81
2023/09/29 08:08:30;;;;;;;;;2.50;1.75;;;;;28.19;46.31;101422.72;4994531;28;45321;-78
2023/09/29 08:10:55;;;;;;;;;3.50;1.25;;;;;28.59;45.07;101435.72;5010678;28;45337;-79
2023/09/29 08:13:23;;;;;;;;;2.50;0.50;;;;;28.36;45.17;101424.50;5005728;28;45330;-79
2023/09/29 08:15:49;;;;;;;;;3.25;2.00;;;;;28.60;45.33;101451.25;4995140;28;45490;-80
2023/09/29 08:18:16;;;;;;;;;0.25;0.25;;;;;28.72;45.33;101444.38;4996945;28;45501;-81
2023/09/29 08:20:42;;;;;;;;;2.75;2.75;;;;;28.87;44.53;101436.31;5013721;28;45679;-79
2023/09/29 08:23:07;;;;;;;;;0.50;0.50;;;;;29.04;44.25;101448.22;5016290;28;45614;-80
2023/09/29 08:25:33;;;;;;;;;4.00;1.75;;;;;29.09;44.12;101467.91;5015897;28;45859;-80
2023/09/29 08:28:02;;;;;;;;;0.00;0.00;;;;;28.87;44.76;101467.53;5015582;28;45474;-81
2023/09/29 08:30:28;;;;;;;;;5.00;2.00;;;;;28.65;44.37;101465.44;5013762;28;45309;-81
2023/09/29 08:32:53;;;;;;;;;0.00;0.00;;;;;28.71;44.21;101494.22;5013506;28;45318;-81
2023/09/29 08:35:18;;;;;;;;;0.00;0.00;;;;;28.59;44.36;101497.28;5012454;27;45621;-81
2023/09/29 08:37:44;;;;;;;;;1.75;0.00;;;;;28.70;44.33;101509.06;5013597;28;50360;-80
2023/09/29 08:40:12;;;;;;;;;0.50;0.00;;;;;28.85;43.65;101505.47;5012171;28;45396;-81
2023/09/29 08:42:38;;;;;;;;;0.50;0.00;;;;;28.23;43.62;101496.69;5012055;28;45523;-84
2023/09/29 08:45:14;;;;;;;;;0.75;0.00;;;;;28.41;44.44;101515.88;5010930;28;45239;-81
2023/09/29 08:47:40;;;;;;;;;0.00;0.00;;;;;28.64;43.49;101526.28;5013488;28;46438;-81
2023/09/29 08:50:11;;;;;;;;;0.00;0.00;;;;;28.81;43.64;101550.16;5013155;28;45483;-80
2023/09/29 08:52:37;;;;;;;;;0.00;0.00;;;;;28.30;43.06;101512.56;5013698;28;45383;-80
2023/09/29 08:55:03;;;;;;;;;0.00;0.00;;;;;28.53;43.32;101538.50;4999890;28;45524;-80
2023/09/29 08:57:30;;;;;;;;;0.00;0.00;;;;;28.41;43.34;101539.84;5012750;28;46272;-81
2023/09/29 08:59:56;;;;;;;;;0.25;0.00;;;;;28.76;42.24;101556.19;4999967;28;45459;-80
2023/09/29 09:02:24;;;;;;;;;1.00;0.00;;;;;28.64;42.41;101543.72;5013349;28;45428;-82
2023/09/29 09:04:50;;;;;;;;;1.00;0.00;;;;;28.60;42.67;101545.94;5012801;28;45384;-81
2023/09/29 09:07:15;;;;;;;;;0.00;0.00;;;;;28.44;43.15;101562.44;5011431;28;47355;-82
2023/09/29 09:09:53;;;;;;;;;0.00;0.00;;;;;28.19;43.57;101550.44;5013703;28;45429;-81
2023/09/29 09:12:18;;;;;;;;;0.50;0.50;;;;;28.41;42.82;101537.09;5012430;28;45381;-78
2023/09/29 09:14:47;;;;;;;;;0.00;0.00;;;;;28.38;43.03;101543.81;5011159;28;46311;-79
2023/09/29 09:17:13;;;;;;;;;0.75;0.00;;;;;28.51;43.10;101568.16;5013088;28;45954;-80
2023/09/29 09:19:43;;;;;;;;;0.00;0.00;;;;;28.55;42.66;101581.44;5013065;28;45442;-82
2023/09/29 09:22:16;;;;;;;;;0.00;0.00;;;;;28.70;43.17;101569.75;5012710;28;45461;-80
2023/09/29 09:24:41;;;;;;;;;0.00;0.00;;;;;28.61;42.71;101569.75;5013246;28;45224;-80
2023/09/29 09:27:07;;;;;;;;;0.00;0.00;;;;;28.83;42.55;101572.94;5013021;28;45419;-81
2023/09/29 09:29:40;;;;;;;;;0.00;0.00;;;;;29.05;42.06;101591.63;5013639;28;45320;-82
2023/09/29 09:32:06;;;;;;;;;0.00;0.00;;;;;29.21;42.10;101586.13;5013038;28;45367;-81
2023/09/29 09:34:33;;;;;;;;;0.00;0.00;;;;;29.32;42.25;101612.56;5028858;27;46078;-81
2023/09/29 09:36:58;;;;;;;;;0.75;0.25;;;;;28.73;42.83;101608.06;5011768;27;46736;-80
2023/09/29 09:39:24;;;;;;;;;0.00;0.00;;;;;28.75;43.42;101622.59;5012015;27;45378;-81
2023/09/29 09:41:59;;;;;;;;;0.00;0.00;;;;;28.72;43.32;101634.81;5013963;28;45230;-81
2023/09/29 09:44:26;;;;;;;;;0.00;0.00;;;;;28.60;43.09;101612.16;5013323;28;45521;-80
2023/09/29 09:47:10;;;;;;;;;1.75;0.00;;;;;28.60;42.71;101634.22;5013053;28;46226;-80
2023/09/29 09:49:50;;;;;;;;;0.00;0.00;;;;;28.75;41.94;101642.72;5013134;28;45577;-81
2023/09/29 09:52:29;;;;;;;;;1.00;0.00;;;;;28.43;42.83;101634.31;5007819;28;45394;-81
2023/09/29 09:55:04;;;;;;;;;0.00;0.00;;;;;28.19;43.09;101621.28;5013225;28;45466;-80
2023/09/29 09:57:35;;;;;;;;;2.00;0.75;;;;;28.35;43.05;101640.66;5028380;28;46506;-81
2023/09/29 10:00:07;;;;;;;;;1.00;1.00;;;;;28.20;42.81;101656.09;5012800;28;45254;-79
2023/09/29 10:02:43;;;;;;;;;1.00;1.00;;;;;28.21;42.30;101636.63;5015819;28;45505;-79
2023/09/29 10:05:16;;;;;;;;;0.25;0.25;;;;;28.40;42.46;101645.69;5015197;28;45393;-76
2023/09/29 10:07:48;;;;;;;;;0.00;0.00;;;;;28.70;41.47;101650.66;4996746;28;45627;-77
2023/09/29 10:10:25;;;;;;;;;1.25;1.25;;;;;28.73;41.08;101649.47;4992666;28;45325;-77
2023/09/29 10:12:55;;;;;;;;;1.50;1.50;;;;;28.67;41.46;101663.94;5010098;28;45557;-78
2023/09/29 10:15:21;;;;;;;;;0.75;0.75;;;;;28.51;41.52;101665.56;5012206;28;45539;-78
2023/09/29 10:17:47;;;;;;;;;2.00;1.00;;;;;28.81;41.04;101677.13;5010791;28;45299;-78
2023/09/29 10:20:20;;;;;;;;;0.50;0.50;;;;;29.01;40.97;101684.09;5010388;28;45372;-75
2023/09/29 10:22:47;;;;;;;;;2.25;1.00;;;;;28.83;41.24;101683.38;5012025;28;45315;-74
2023/09/29 10:25:20;;;;;;;;;1.00;0.00;;;;;28.59;41.16;101681.31;5011338;28;45526;-76
2023/09/29 10:27:49;;;;;;;;;1.00;1.00;;;;;28.74;40.52;101682.44;5024615;27;48017;-77
2023/09/29 10:30:18;;;;;;;;;1.00;1.00;;;;;28.76;40.69;101682.25;5013981;28;45568;-80
2023/09/29 10:32:45;;;;;;;;;2.00;0.00;;;;;28.96;40.70;101697.56;5013168;28;45811;-77
2023/09/29 10:35:20;;;;;;;;;0.00;0.00;;;;;29.15;40.14;101694.53;5011819;28;45336;-77
2023/09/29 10:37:49;;;;;;;;;0.00;0.00;;;;;28.86;40.89;101694.91;5012009;28;46574;-78
2023/09/29 10:40:23;;;;;;;;;1.75;1.75;;;;;29.05;40.06;101692.91;5012310;28;45419;-78
2023/09/29 10:42:48;;;;;;;;;1.00;1.00;;;;;29.28;39.39;101680.19;5010953;28;45515;-77
2023/09/29 10:45:25;;;;;;;;;0.50;0.25;;;;;29.00;39.84;101687.06;5011903;28;45341;-78
2023/09/29 10:47:50;;;;;;;;;1.75;1.75;;;;;29.21;39.78;101696.59;5012759;28;47138;-79
2023/09/29 10:50:16;;;;;;;;;2.75;2.00;;;;;29.18;39.87;101694.16;5011842;27;45641;-77
2023/09/29 10:52:42;;;;;;;;;0.50;0.50;;;;;29.19;39.31;101695.91;5011068;28;45454;-79
2023/09/29 10:55:16;;;;;;;;;1.00;1.00;;;;;28.98;39.86;101696.34;5012375;27;45483;-77
2023/09/29 10:57:42;;;;;;;;;1.00;1.00;;;;;29.09;39.38;101708.13;5012085;28;46086;-76
2023/09/29 11:00:09;;;;;;;;;2.00;2.00;;;;;29.15;38.98;101721.25;4999145;28;45774;-78
2023/09/29 11:02:36;;;;;;;;;0.50;0.50;;;;;29.27;38.70;101706.97;5009786;28;45602;-79
2023/09/29 11:05:04;;;;;;;;;3.50;2.00;;;;;29.46;38.65;101719.66;5011086;28;45308;-77
2023/09/29 11:07:30;;;;;;;;;2.00;0.75;;;;;29.82;37.99;101717.44;5010914;28;46031;-79
2023/09/29 11:09:59;;;;;;;;;1.00;0.75;;;;;30.01;37.52;101728.22;5011899;28;45415;-75
2023/09/29 11:12:27;;;;;;;;;2.25;0.75;;;;;29.78;37.79;101701.38;5011846;28;45443;-76
2023/09/29 11:15:03;;;;;;;;;2.00;2.00;;;;;30.19;36.53;101718.88;5011454;28;45510;-76
2023/09/29 11:17:28;;;;;;;;;2.00;0.75;;;;;30.33;35.99;101737.50;4995647;28;46487;-76
2023/09/29 11:19:54;;;;;;;;;1.00;1.00;;;;;30.51;36.36;101724.38;4991513;28;45301;-77
2023/09/29 11:22:20;;;;;;;;;1.50;1.50;;;;;30.67;35.48;101713.25;4991587;28;45348;-76
2023/09/29 11:24:50;;;;;;;;;1.00;1.00;;;;;30.74;35.43;101724.47;5000587;28;46404;-77
2023/09/29 11:27:19;;;;;;;;;0.50;0.50;;;;;30.81;35.26;101719.94;5011187;28;45607;-79
2023/09/29 11:29:44;;;;;;;;;0.50;0.50;;;;;30.47;35.98;101728.47;5001316;28;45279;-77
2023/09/29 11:32:09;;;;;;;;;1.00;1.00;;;;;30.67;35.06;101717.91;4991056;28;45422;-76
2023/09/29 11:34:35;;;;;;;;;1.25;1.25;;;;;30.97;34.97;101739.25;4991595;28;45219;-77
2023/09/29 11:37:00;;;;;;;;;2.25;1.00;;;;;30.75;35.04;101734.50;4991286;27;45314;-76
2023/09/29 11:39:26;;;;;;;;;1.50;0.25;;;;;30.71;33.83;101733.16;4994250;28;45324;-77
2023/09/29 11:41:51;;;;;;;;;1.00;1.00;;;;;30.78;34.58;101736.94;4994501;28;45407;-77
2023/09/29 11:44:17;;;;;;;;;1.00;1.00;;;;;30.49;35.32;101754.09;4994266;28;45554;-76
2023/09/29 11:46:42;;;;;;;;;0.00;0.00;;;;;29.97;35.88;101759.13;4994282;28;45354;-77
2023/09/29 11:49:07;;;;;;;;;1.00;1.00;;;;;30.72;34.95;101762.53;4992675;27;45253;-78
2023/09/29 11:51:33;;;;;;;;;3.00;2.25;;;;;31.55;34.44;101757.38;5006330;28;45698;-72
2023/09/29 11:53:59;;;;;;;;;1.00;1.00;;;;;32.00;32.29;101748.22;5005466;28;45366;-74
2023/09/29 11:56:25;;;;;;;;;0.75;0.75;;;;;32.93;31.82;101753.38;5012800;28;45470;-74
2023/09/29 11:58:50;;;;;;;;;0.50;0.50;;;;;33.42;30.28;101765.66;5013525;28;45381;-73
2023/09/29 12:01:17;;;;;;;;;0.50;0.50;;;;;33.86;29.83;101769.38;5014005;28;45484;-72
2023/09/29 12:03:43;;;;;;;;;2.00;0.75;;;;;33.70;29.65;101781.56;5013899;28;45388;-73
2023/09/29 12:06:08;;;;;;;;;2.25;2.00;;;;;33.53;29.55;101772.59;5010845;27;47339;-74
2023/09/29 12:08:35;;;;;;;;;1.25;0.75;;;;;33.64;29.26;101779.56;5013037;28;45364;-74
2023/09/29 12:11:01;;;;;;;;;1.75;0.75;;;;;34.05;28.31;101786.25;5013778;28;45453;-74
2023/09/29 12:13:26;;;;;;;;;1.00;1.00;;;;;34.13;28.47;101788.03;5013618;28;45393;-74
2023/09/29 12:15:51;;;;;;;;;0.50;0.50;;;;;34.24;28.47;101795.03;5013414;28;45396;-74
2023/09/29 12:18:17;;;;;;;;;2.00;2.00;;;;;34.00;28.39;101772.09;5013400;28;45484;-74
2023/09/29 12:20:43;;;;;;;;;1.50;1.50;;;;;33.68;28.88;101797.59;5013627;28;45865;-74
2023/09/29 12:23:08;;;;;;;;;2.75;1.50;;;;;33.19;29.34;101798.22;5012406;28;45434;-74
2023/09/29 12:25:37;;;;;;;;;3.00;1.50;;;;;33.11;29.68;101792.75;5013095;28;46021;-74
2023/09/29 12:28:04;;;;;;;;;1.75;1.75;;;;;32.67;30.17;101787.16;5010495;28;45433;-73
2023/09/29 12:30:30;;;;;;;;;1.50;1.50;;;;;32.84;30.37;101810.97;5013229;28;45390;-73
2023/09/29 12:32:55;;;;;;;;;1.75;1.75;;;;;32.28;31.04;101796.56;5012695;27;45581;-74
2023/09/29 12:35:21;;;;;;;;;1.50;1.50;;;;;32.38;31.41;101814.88;5012509;28;46359;-73
2023/09/29 12:37:46;;;;;;;;;1.25;1.00;;;;;32.80;30.26;101814.31;5013559;28;45500;-73
2023/09/29 12:40:14;;;;;;;;;3.25;2.00;;;;;33.66;28.99;101806.13;5013545;28;45326;-73
2023/09/29 12:42:49;;;;;;;;;0.75;0.75;;;;;33.80;28.11;101821.09;5012688;28;45459;-74
2023/09/29 12:45:23;;;;;;;;;1.50;1.50;;;;;34.70;27.64;101804.66;5012700;28;46253;-72
2023/09/29 12:47:49;;;;;;;;;3.25;1.75;;;;;35.00;26.73;101796.06;5013087;28;45515;-75
2023/09/29 12:50:15;;;;;;;;;2.75;2.75;;;;;35.39;26.47;101804.66;5012091;28;45383;-73
2023/09/29 12:52:41;;;;;;;;;5.50;2.00;;;;;35.75;25.85;101803.53;5011996;28;45293;-74
2023/09/29 12:55:07;;;;;;;;;3.50;1.25;;;;;35.72;25.52;101804.84;5012539;27;56274;-73
2023/09/29 12:57:32;;;;;;;;;2.00;2.00;;;;;35.78;25.61;101798.41;5012916;28;45405;-74
2023/09/29 12:59:59;;;;;;;;;4.25;1.50;;;;;36.41;25.41;101804.53;5012646;28;45615;-74
2023/09/29 13:02:27;;;;;;;;;1.75;1.75;;;;;36.87;22.94;101807.31;5012794;28;45575;-73
2023/09/29 13:04:53;;;;;;;;;2.50;2.50;;;;;36.82;23.64;101807.13;5007375;28;45365;-73
2023/09/29 13:07:19;;;;;;;;;2.25;2.25;;;;;37.05;23.90;101801.91;4992575;28;45459;-74
2023/09/29 13:09:44;;;;;;;;;2.25;2.25;;;;;37.69;22.84;101811.38;4993532;28;45509;-74
2023/09/29 13:12:10;;;;;;;;;1.50;1.50;;;;;38.05;21.71;101797.63;5004730;28;45424;-74
2023/09/29 13:14:36;;;;;;;;;2.50;2.50;;;;;38.09;22.12;101804.50;5012526;28;46139;-75
2023/09/29 13:17:02;;;;;;;;;4.25;2.75;;;;;38.36;21.74;101791.16;5012844;28;45249;-75
2023/09/29 13:19:27;;;;;;;;;2.00;2.00;;;;;38.77;21.99;101787.78;5012622;28;45466;-74
2023/09/29 13:21:53;;;;;;;;;1.50;1.50;;;;;38.30;21.27;101794.84;5001194;28;45482;-73
2023/09/29 13:24:19;;;;;;;;;1.25;1.25;;;;;38.72;20.95;101800.75;4993163;28;46262;-75
2023/09/29 13:26:44;;;;;;;;;3.75;3.75;;;;;38.05;20.26;101802.31;4993011;27;45295;-75
2023/09/29 13:29:10;;;;;;;;;3.50;3.00;;;;;37.97;20.33;101800.66;4998997;28;45959;-74
2023/09/29 13:31:36;;;;;;;;;4.50;3.50;;;;;37.85;20.14;101808.09;4992695;28;45567;-74
2023/09/29 13:34:03;;;;;;;;;3.25;1.00;;;;;38.36;20.25;101779.94;4992601;28;45391;-74
2023/09/29 13:36:28;;;;;;;;;3.00;2.00;;;;;38.88;20.00;101791.72;5009615;28;45363;-74
2023/09/29 13:38:53;;;;;;;;;3.75;3.00;;;;;38.16;19.94;101788.50;5012595;28;46979;-75
2023/09/29 13:41:19;;;;;;;;;2.50;2.00;;;;;37.93;20.38;101785.41;5012495;28;45523;-73
2023/09/29 13:43:44;;;;;;;;;2.50;1.75;;;;;38.67;20.14;101793.03;5011890;28;46115;-74
2023/09/29 13:46:09;;;;;;;;;5.00;3.50;;;;;39.32;19.70;101788.66;5012815;28;45399;-73
2023/09/29 13:48:37;;;;;;;;;2.75;2.75;;;;;39.86;18.85;101806.56;5012442;27;45518;-76
2023/09/29 13:51:09;;;;;;;;;1.00;1.00;;;;;40.26;18.65;101811.59;5027718;28;46521;-75
2023/09/29 13:53:36;;;;;;;;;3.00;3.00;;;;;39.96;18.67;101818.09;5010966;28;47465;-75
2023/09/29 13:56:06;;;;;;;;;4.75;4.00;;;;;40.08;18.43;101824.56;4999310;28;45369;-74
2023/09/29 13:58:32;;;;;;;;;1.25;1.25;;;;;39.13;18.76;101834.63;5011277;28;45349;-74
2023/09/29 14:00:57;;;;;;;;;4.50;3.50;;;;;38.52;19.72;101828.97;4998233;28;45386;-74
2023/09/29 14:03:23;;;;;;;;;2.50;2.50;;;;;38.21;20.41;101827.03;4991494;27;46140;-74
2023/09/29 14:05:48;;;;;;;;;3.50;2.75;;;;;38.19;20.67;101832.00;4991906;28;45384;-73
2023/09/29 14:08:13;;;;;;;;;3.00;3.00;;;;;38.29;20.88;101832.34;4994320;27;45450;-73
2023/09/29 14:10:39;;;;;;;;;4.00;3.00;;;;;38.39;20.69;101835.50;5011954;28;49374;-75
2023/09/29 14:13:04;;;;;;;;;3.00;3.00;;;;;38.68;20.44;101839.63;5011949;28;47239;-74
2023/09/29 14:15:32;;;;;;;;;3.00;3.00;;;;;38.54;20.01;101840.78;5011982;28;45352;-74
2023/09/29 14:17:58;;;;;;;;;2.25;2.25;;;;;38.70;19.01;101833.78;5011359;28;45176;-75
2023/09/29 14:20:23;;;;;;;;;5.00;3.25;;;;;38.64;19.25;101835.53;5011949;28;45391;-74
2023/09/29 14:22:48;;;;;;;;;3.75;3.75;;;;;39.09;18.56;101819.38;5011700;28;46215;-75
2023/09/29 14:25:14;;;;;;;;;2.25;2.25;;;;;38.82;18.39;101829.97;5009863;28;45265;-74
2023/09/29 14:27:39;;;;;;;;;3.25;2.75;;;;;38.62;18.99;101828.47;5012333;27;45399;-75
2023/09/29 14:30:06;;;;;;;;;3.50;2.75;;;;;39.23;18.55;101834.97;5011402;28;45757;-74
2023/09/29 14:32:31;;;;;;;;;3.75;3.50;;;;;39.43;18.70;101845.97;5011595;28;46082;-75
2023/09/29 14:34:57;;;;;;;;;2.75;2.75;;;;;39.00;18.81;101848.81;5010177;28;45751;-75
2023/09/29 14:37:22;;;;;;;;;3.75;2.50;;;;;38.72;18.85;101823.16;5012075;27;45479;-74
2023/09/29 14:39:48;;;;;;;;;4.25;1.00;;;;;38.90;18.72;101824.06;5011631;28;45601;-74
2023/09/29 14:42:13;;;;;;;;;3.25;2.00;;;;;38.53;18.64;101817.53;5011000;28;45865;-74
2023/09/29 14:44:38;;;;;;;;;2.00;2.00;;;;;38.31;18.80;101807.78;5010817;28;45569;-73
2023/09/29 14:47:04;;;;;;;;;2.25;2.25;;;;;38.38;18.93;101819.78;5011442;28;45495;-74
2023/09/29 14:49:29;;;;;;;;;3.75;3.00;;;;;38.13;19.27;101842.16;5010776;28;45585;-74
2023/09/29 14:51:55;;;;;;;;;4.75;3.00;;;;;37.40;19.30;101833.22;5011504;28;45379;-73
2023/09/29 14:54:21;;;;;;;;;4.25;2.25;;;;;37.69;18.98;101844.97;5011750;28;45391;-74
2023/09/29 14:56:47;;;;;;;;;3.50;3.00;;;;;37.44;19.32;101828.03;5011473;28;45503;-74
2023/09/29 14:59:17;;;;;;;;;4.00;3.00;;;;;37.30;19.07;101832.84;5010264;28;45837;-74
2023/09/29 15:01:43;;;;;;;;;6.25;4.25;;;;;37.55;19.25;101832.94;4991898;28;45364;-75
2023/09/29 15:04:08;;;;;;;;;3.50;3.50;;;;;37.65;19.52;101850.16;4991108;28;45468;-76
2023/09/29 15:06:34;;;;;;;;;6.25;4.25;;;;;37.65;19.96;101847.38;4989372;28;45990;-75
2023/09/29 15:08:59;;;;;;;;;2.00;2.00;;;;;37.41;20.11;101850.88;4989910;28;45713;-76
2023/09/29 15:11:25;;;;;;;;;4.00;4.00;;;;;37.21;20.70;101872.44;4989629;28;45478;-75
2023/09/29 15:13:50;;;;;;;;;6.50;4.75;;;;;36.78;21.21;101861.72;4989327;28;45411;-74
2023/09/29 15:16:15;;;;;;;;;3.75;3.75;;;;;36.69;21.46;101857.44;4989872;28;45591;-75
2023/09/29 15:18:46;;;;;;;;;5.00;5.00;;;;;36.78;21.44;101847.75;5007919;28;45906;-74
2023/09/29 15:21:12;;;;;;;;;5.75;4.50;;;;;36.86;21.30;101833.53;5010741;28;46206;-74
2023/09/29 15:23:37;;;;;;;;;5.00;2.00;;;;;37.24;20.86;101847.72;5011185;28;45513;-73
2023/09/29 15:26:03;;;;;;;;;4.50;3.25;;;;;37.03;21.04;101822.75;5011324;28;45422;-73
2023/09/29 15:28:28;;;;;;;;;4.00;4.00;;;;;37.26;20.83;101842.72;5009003;28;45812;-74
2023/09/29 15:30:54;;;;;;;;;3.50;3.50;;;;;37.17;21.24;101835.69;5037815;27;46586;-77
2023/09/29 15:33:20;;;;;;;;;4.50;3.25;;;;;36.71;22.88;101850.56;5000807;27;45863;-76
2023/09/29 15:35:54;;;;;;;;;5.50;4.00;;;;;36.61;23.69;101847.28;4995288;28;45575;-74
2023/09/29 15:38:22;;;;;;;;;5.50;2.75;;;;;36.69;23.87;101858.28;5001641;28;45491;-73
2023/09/29 15:40:50;;;;;;;;;3.00;3.00;;;;;36.83;24.07;101850.78;4991606;28;45354;-73
2023/09/29 15:43:16;;;;;;;;;4.00;3.00;;;;;36.66;24.09;101860.63;5002130;28;45474;-75
2023/09/29 15:45:41;;;;;;;;;4.25;2.75;;;;;36.42;24.00;101862.09;5010991;28;45605;-76
2023/09/29 15:48:07;;;;;;;;;3.00;2.00;;;;;36.14;24.48;101870.66;5010739;28;45358;-74
2023/09/29 15:50:33;;;;;;;;;4.75;2.00;;;;;36.17;24.61;101864.63;5009185;28;45482;-74
2023/09/29 15:52:58;;;;;;;;;4.00;4.00;;;;;36.31;24.68;101852.44;5010351;28;45386;-76